Time;durP1;ratioP1;P1;durP2;ratioP2;P2;SDS_P1;SDS_P2;PMS_P1;PMS_P2;Temp;Humidity;BMP_temperature;BMP_pressure;BME280_temperature;BME280_humidity;BME280_pressure;Samples;Min_cycle;Max_cycle;Signal;HPM_P1;HPM_P2
2022/04/29 00:01:07;;;;;;;3.50;2.00;;;;;;;12.66;74.49;150835.19;1732041;81;21019;-59
2022/04/29 00:03:36;;;;;;;4.78;1.82;;;;;;;12.63;74.52;150826.06;1732003;81;21039;-59
2022/04/29 00:06:05;;;;;;;4.90;1.72;;;;;;;12.60;74.67;150820.88;1732324;82;21141;-60
2022/04/29 00:08:33;;;;;;;4.08;1.90;;;;;;;12.59;74.76;150818.28;1732878;82;21033;-60
2022/04/29 00:11:01;;;;;;;4.08;2.33;;;;;;;12.59;74.92;150818.28;1732611;81;21579;-60
2022/04/29 00:13:29;;;;;;;2.70;1.60;;;;;;;12.58;75.12;150814.34;1732793;81;22085;-59
2022/04/29 00:15:58;;;;;;;5.50;2.17;;;;;;;12.57;75.65;150813.08;1732874;82;21063;-59
2022/04/29 00:18:26;;;;;;;5.00;2.10;;;;;;;12.53;75.88;150802.69;1732812;82;21289;-59
2022/04/29 00:20:53;;;;;;;6.22;2.00;;;;;;;12.51;76.90;150796.17;1732829;81;20984;-60
2022/04/29 00:23:21;;;;;;;2.52;1.85;;;;;;;12.47;76.89;150787.06;1732519;82;21082;-60
2022/04/29 00:25:49;;;;;;;5.00;1.92;;;;;;;12.45;77.46;150781.88;1732871;81;21499;-60
2022/04/29 00:28:17;;;;;;;3.87;1.90;;;;;;;12.42;77.54;150774.08;1732411;82;21516;-60
2022/04/29 00:30:45;;;;;;;3.92;2.05;;;;;;;12.40;77.28;150768.89;1732823;82;20980;-60
2022/04/29 00:33:13;;;;;;;3.83;2.08;;;;;;;12.38;77.41;150763.69;1732731;82;22116;-60
2022/04/29 00:35:41;;;;;;;3.47;1.90;;;;;;;12.37;77.03;150761.09;1732942;82;21105;-60
2022/04/29 00:38:15;;;;;;;4.60;2.25;;;;;;;12.38;76.85;150763.69;1732661;82;21406;-61
2022/04/29 00:40:40;;;;;;;3.25;2.05;;;;;;;12.40;76.88;150768.89;1732805;82;21060;-60
2022/04/29 00:43:08;;;;;;;4.58;2.20;;;;;;;12.40;76.96;150770.20;1732364;82;20960;-59
2022/04/29 00:45:35;;;;;;;5.47;1.80;;;;;;;12.41;76.89;150771.48;1732730;82;21568;-59
2022/04/29 00:48:03;;;;;;;4.72;2.30;;;;;;;12.40;77.28;150768.89;1732631;82;21024;-60
2022/04/29 00:50:31;;;;;;;4.47;2.20;;;;;;;12.38;77.49;150765.02;1732737;82;21071;-59
2022/04/29 00:52:59;;;;;;;3.20;1.87;;;;;;;12.36;78.26;150758.50;1732659;82;21055;-59
2022/04/29 00:55:30;;;;;;;5.47;2.05;;;;;;;12.32;78.46;150750.72;1732467;82;21658;-60
2022/04/29 00:58:25;;;;;;;4.22;1.92;;;;;;;12.29;78.87;150741.59;1733212;82;21007;-58
2022/04/29 01:00:53;;;;;;;3.50;1.92;;;;;;;12.26;79.30;150735.09;1732213;82;20996;-60
2022/04/29 01:03:21;;;;;;;2.75;2.00;;;;;;;12.24;79.48;150729.89;1731593;82;21066;-59
2022/04/29 01:05:50;;;;;;;3.00;2.35;;;;;;;12.23;79.64;150726.03;1732257;82;21030;-59
2022/04/29 01:08:18;;;;;;;3.70;2.22;;;;;;;12.22;79.66;150724.70;1732159;82;20983;-59
2022/04/29 01:10:47;;;;;;;3.30;2.10;;;;;;;12.24;80.09;150729.89;1732702;82;20885;-59
2022/04/29 01:13:15;;;;;;;3.33;2.20;;;;;;;12.24;80.83;150729.89;1732418;82;21079;-59
2022/04/29 01:15:44;;;;;;;3.75;2.40;;;;;;;12.22;80.87;150723.44;1732699;82;20976;-59
2022/04/29 01:18:13;;;;;;;2.67;1.90;;;;;;;12.21;81.12;150722.09;1732976;82;21031;-59
2022/04/29 01:20:41;;;;;;;2.92;2.25;;;;;;;12.20;81.21;150719.50;1712004;82;21232;-58
2022/04/29 01:23:11;;;;;;;5.20;2.58;;;;;;;12.21;81.12;150720.83;1732691;82;21429;-59
2022/04/29 01:25:39;;;;;;;5.05;2.70;;;;;;;12.20;81.20;150719.50;1711856;82;21032;-59
2022/04/29 01:28:06;;;;;;;4.87;2.70;;;;;;;12.21;81.41;150722.09;1711930;82;21054;-59
2022/04/29 01:30:36;;;;;;;4.40;2.40;;;;;;;12.20;81.44;150718.23;1732739;81;21043;-59
2022/04/29 01:33:04;;;;;;;4.58;2.17;;;;;;;12.20;81.57;150718.23;1732781;82;21135;-57
2022/04/29 01:35:32;;;;;;;4.92;2.20;;;;;;;12.20;81.12;150719.50;1732435;82;21553;-58
2022/04/29 01:38:01;;;;;;;3.65;2.30;;;;;;;12.22;80.96;150724.70;1731879;82;21004;-60
2022/04/29 01:40:29;;;;;;;4.28;2.42;;;;;;;12.24;80.52;150729.89;1732326;82;22147;-58
2022/04/29 01:42:58;;;;;;;4.28;2.42;;;;;;;12.26;80.02;150735.09;1732078;82;21012;-58
2022/04/29 01:45:26;;;;;;;4.50;2.45;;;;;;;12.28;79.75;150739.00;1732252;82;21261;-58
2022/04/29 01:47:55;;;;;;;3.20;2.22;;;;;;;12.31;79.58;150748.11;1730971;82;21043;-58
2022/04/29 01:50:32;;;;;;;4.25;2.98;;;;;;;12.33;79.04;150751.98;1692467;82;21078;-58
2022/04/29 01:52:59;;;;;;;3.98;2.50;;;;;;;12.34;78.90;150753.31;1743251;80;21063;-58
2022/04/29 01:55:27;;;;;;;3.37;2.27;;;;;;;12.37;78.66;150761.09;1744678;81;21097;-58
2022/04/29 01:58:04;;;;;;;3.80;2.30;;;;;;;12.38;78.42;150763.69;1745041;81;21382;-59
2022/04/29 02:00:26;;;;;;;5.30;2.37;;;;;;;12.39;77.88;150767.61;1742243;81;21057;-59
2022/04/29 02:02:55;;;;;;;5.05;2.45;;;;;;;12.40;77.61;150768.89;1745116;80;21019;-59
2022/04/29 02:05:24;;;;;;;4.62;2.67;;;;;;;12.41;77.64;150771.48;1744694;81;21043;-60
2022/04/29 02:07:53;;;;;;;5.58;2.30;;;;;;;12.42;77.60;150774.08;1745259;81;21010;-59
2022/04/29 02:10:21;;;;;;;4.00;2.33;;;;;;;12.43;77.69;150776.67;1745424;81;20943;-59
2022/04/29 02:12:51;;;;;;;3.58;2.50;;;;;;;12.45;77.71;150781.88;1745287;81;21433;-59
2022/04/29 02:15:26;;;;;;;3.83;2.37;;;;;;;12.43;77.77;150778.00;1742910;82;20959;-59
2022/04/29 02:17:55;;;;;;;5.67;2.47;;;;;;;12.43;77.71;150776.67;1745279;82;21034;-59
2022/04/29 02:20:26;;;;;;;5.42;2.72;;;;;;;12.42;77.71;150774.08;1745015;80;21053;-58
2022/04/29 02:22:53;;;;;;;3.33;2.42;;;;;;;12.42;77.66;150774.08;1745065;80;21191;-59
2022/04/29 02:25:21;;;;;;;3.65;2.55;;;;;;;12.42;77.80;150774.08;1744668;82;21066;-58
2022/04/29 02:27:48;;;;;;;9.25;2.47;;;;;;;12.42;77.82;150774.08;1745384;82;21027;-59
2022/04/29 02:30:17;;;;;;;3.50;2.30;;;;;;;12.41;77.90;150771.48;1744843;81;21420;-61
2022/04/29 02:32:44;;;;;;;4.80;2.27;;;;;;;12.38;77.94;150765.02;1745302;81;21003;-57
2022/04/29 02:35:12;;;;;;;3.12;2.40;;;;;;;12.41;78.03;150771.48;1744784;80;21302;-58
2022/04/29 02:37:40;;;;;;;3.20;2.42;;;;;;;12.40;78.08;150768.89;1745075;82;20998;-58
2022/04/29 02:40:09;;;;;;;3.70;2.62;;;;;;;12.41;78.13;150771.48;1744827;80;21106;-58
2022/04/29 02:42:36;;;;;;;3.40;2.10;;;;;;;12.40;78.12;150768.89;1745413;82;21058;-58
2022/04/29 02:45:05;;;;;;;5.53;2.40;;;;;;;12.40;77.49;150770.20;1745172;80;20987;-62
2022/04/29 02:47:44;;;;;;;7.50;3.27;;;;;;;12.39;77.63;150767.61;1745528;80;21107;-60
2022/04/29 02:50:11;;;;;;;3.65;2.60;;;;;;;12.41;77.79;150771.48;1744983;82;21098;-60
2022/04/29 02:52:40;;;;;;;5.37;2.42;;;;;;;12.41;76.94;150771.48;1736964;81;20935;-60
2022/04/29 02:55:08;;;;;;;4.00;2.40;;;;;;;12.43;76.97;150776.67;1732301;82;20987;-59
2022/04/29 02:57:37;;;;;;;4.55;2.20;;;;;;;12.45;76.38;150781.88;1722104;82;21091;-58
2022/04/29 03:00:08;;;;;;;2.77;1.95;;;;;;;12.46;75.89;150784.47;1732221;82;22163;-57
2022/04/29 03:02:36;;;;;;;4.30;2.35;;;;;;;12.49;75.67;150790.98;1732616;81;21064;-60
2022/04/29 03:05:07;;;;;;;3.17;2.42;;;;;;;12.51;74.42;150797.50;1732827;82;20905;-58
2022/04/29 03:07:36;;;;;;;5.42;1.95;;;;;;;12.54;73.99;150805.28;1732587;82;21930;-58
2022/04/29 03:10:07;;;;;;;4.62;2.50;;;;;;;12.59;73.74;150818.28;1732847;82;22106;-59
2022/04/29 03:12:37;;;;;;;3.80;2.40;;;;;;;12.59;73.58;150818.28;1733078;81;21065;-59
2022/04/29 03:15:16;;;;;;;3.00;2.00;;;;;;;12.61;73.53;150822.19;1731587;81;21832;-57
2022/04/29 03:20:37;;;;;;;3.33;2.12;;;;;;;12.61;72.90;150822.19;1711171;82;21708;-58
2022/04/29 03:23:04;;;;;;;3.42;2.12;;;;;;;12.63;73.10;150827.39;1732115;82;20999;-58
2022/04/29 03:25:33;;;;;;;3.45;2.40;;;;;;;12.64;72.45;150828.66;1731528;82;21844;-58
2022/04/29 03:28:01;;;;;;;2.15;1.60;;;;;;;12.68;71.21;150840.37;1731978;82;21008;-58
2022/04/29 03:30:29;;;;;;;4.58;1.87;;;;;;;12.72;70.18;150849.48;1731971;82;21089;-58
2022/04/29 03:33:00;;;;;;;3.27;1.92;;;;;;;12.78;69.78;150863.75;1731909;82;21521;-58
2022/04/29 03:35:40;;;;;;;3.85;1.45;;;;;;;12.82;69.07;150875.45;1732393;81;21137;-59
2022/04/29 03:38:09;;;;;;;2.70;1.65;;;;;;;12.88;68.92;150891.03;1732048;82;21843;-59
2022/04/29 03:40:38;;;;;;;3.83;1.62;;;;;;;12.93;68.72;150901.44;1732683;81;21432;-60
2022/04/29 03:43:05;;;;;;;5.12;2.00;;;;;;;12.95;67.73;150907.95;1732850;82;21114;-58
2022/04/29 03:45:34;;;;;;;4.92;1.72;;;;;;;12.98;67.51;150915.75;1732577;82;21008;-58
2022/04/29 03:48:05;;;;;;;3.65;2.00;;;;;;;13.00;67.26;150919.66;1732758;82;21010;-59
2022/04/29 03:50:50;;;;;;;5.78;1.95;;;;;;;13.01;66.99;150922.25;1732846;82;21518;-59
2022/04/29 03:53:24;;;;;;;6.40;1.98;;;;;;;13.02;67.24;150924.86;1732594;80;20967;-59
2022/04/29 03:55:58;;;;;;;3.72;2.22;;;;;;;13.01;67.47;150923.53;1732526;82;21039;-60
2022/04/29 03:58:28;;;;;;;4.80;2.17;;;;;;;13.00;67.17;150919.66;1732555;82;21390;-59
2022/04/29 04:00:57;;;;;;;3.42;1.90;;;;;;;12.99;67.75;150918.34;1732883;82;21011;-59
2022/04/29 04:03:36;;;;;;;5.03;1.98;;;;;;;13.00;67.22;150919.66;1730389;82;21133;-58
2022/04/29 04:08:53;;;;;;;2.00;1.60;;;;;;;13.06;66.96;150933.97;1733391;82;20916;-59
2022/04/29 04:11:20;;;;;;;5.62;1.70;;;;;;;13.08;66.55;150940.44;1732450;82;21545;-58
2022/04/29 04:13:47;;;;;;;2.37;1.70;;;;;;;13.09;66.36;150943.05;1732908;82;21548;-60
2022/04/29 04:16:16;;;;;;;7.42;2.20;;;;;;;13.14;66.50;150956.03;1730836;82;21187;-59
2022/04/29 04:18:45;;;;;;;4.45;2.05;;;;;;;13.15;66.11;150957.34;1732956;82;21045;-59
2022/04/29 04:21:12;;;;;;;3.45;2.10;;;;;;;13.16;65.79;150961.28;1732537;82;21130;-59
2022/04/29 04:23:39;;;;;;;6.50;2.00;;;;;;;13.18;65.44;150966.47;1732596;82;21066;-59
2022/04/29 04:26:08;;;;;;;3.25;1.90;;;;;;;13.20;65.64;150969.06;1732337;82;21406;-59
2022/04/29 04:28:37;;;;;;;7.80;2.42;;;;;;;13.22;65.40;150974.27;1731947;82;21106;-60
2022/04/29 04:31:05;;;;;;;6.85;1.90;;;;;;;13.25;65.16;150982.06;1731682;82;21354;-59
2022/04/29 04:33:37;;;;;;;3.25;1.92;;;;;;;13.26;64.80;150984.66;1731362;82;21500;-60
2022/04/29 04:36:06;;;;;;;5.67;1.90;;;;;;;13.26;65.01;150984.66;1731820;82;21030;-60
2022/04/29 04:38:36;;;;;;;8.35;1.92;;;;;;;13.27;64.86;150987.25;1732178;82;21520;-59
2022/04/29 04:41:04;;;;;;;2.85;1.80;;;;;;;13.30;64.75;150995.05;1732202;81;21556;-60
2022/04/29 04:43:32;;;;;;;4.67;2.00;;;;;;;13.34;64.80;151005.44;1732222;82;21769;-60
2022/04/29 04:46:01;;;;;;;6.70;2.47;;;;;;;13.35;64.90;151008.03;1732707;81;20953;-60
2022/04/29 04:48:41;;;;;;;5.85;1.90;;;;;;;13.36;65.07;151010.64;1706134;82;21071;-61
2022/04/29 04:51:15;;;;;;;2.60;2.10;;;;;;;13.35;64.86;151008.03;1732900;82;21149;-59
2022/04/29 04:53:44;;;;;;;5.40;2.12;;;;;;;13.34;64.83;151005.44;1742648;80;21648;-60
2022/04/29 04:56:11;;;;;;;6.12;2.12;;;;;;;13.32;64.98;151001.56;1745079;81;21547;-61
2022/04/29 04:58:40;;;;;;;2.75;1.75;;;;;;;13.32;65.15;151000.25;1745223;82;21014;-60
2022/04/29 05:01:08;;;;;;;2.35;1.77;;;;;;;13.31;65.02;150997.66;1745387;82;20992;-59
2022/04/29 05:03:40;;;;;;;4.95;1.95;;;;;;;13.28;64.98;150989.86;1742350;82;21003;-60
2022/04/29 05:06:25;;;;;;;3.33;2.00;;;;;;;13.27;64.85;150987.25;1744953;81;22076;-59
2022/04/29 05:08:54;;;;;;;3.40;1.82;;;;;;;13.26;64.94;150984.66;1745306;81;20986;-59
2022/04/29 05:11:21;;;;;;;6.45;2.30;;;;;;;13.24;64.24;150979.45;1744673;82;21011;-59
2022/04/29 05:13:52;;;;;;;2.77;1.42;;;;;;;13.23;64.45;150976.86;1745267;82;20979;-61
2022/04/29 05:16:19;;;;;;;7.65;2.20;;;;;;;13.22;64.65;150974.27;1744722;82;21050;-58
2022/04/29 05:19:04;;;;;;;5.20;2.30;;;;;;;13.22;64.71;150974.27;1744998;82;21769;-61
2022/04/29 05:21:32;;;;;;;2.98;1.87;;;;;;;13.21;64.25;150971.66;1744611;80;21057;-60
2022/04/29 05:24:01;;;;;;;6.97;2.95;;;;;;;13.18;64.10;150965.16;1745276;81;20960;-59
2022/04/29 05:26:33;;;;;;;4.08;2.08;;;;;;;13.18;64.31;150965.16;1735731;80;21160;-59
2022/04/29 05:29:19;;;;;;;3.75;1.70;;;;;;;13.16;64.25;150961.28;1745022;82;21066;-60
2022/04/29 05:31:52;;;;;;;3.47;1.75;;;;;;;13.16;64.15;150961.28;1742622;80;20988;-60
2022/04/29 05:34:40;;;;;;;3.62;1.87;;;;;;;13.18;63.69;150965.16;1652309;85;21040;-59
2022/04/29 05:37:22;;;;;;;3.90;1.80;;;;;;;13.17;63.78;150962.55;1651655;85;21610;-59
2022/04/29 05:42:40;;;;;;;3.98;1.82;;;;;;;13.14;63.75;150956.03;1744847;81;21032;-58
2022/04/29 05:45:09;;;;;;;4.58;2.20;;;;;;;13.10;63.76;150945.64;1745129;80;21269;-58
2022/04/29 05:47:38;;;;;;;3.05;1.92;;;;;;;13.09;63.63;150943.05;1745052;81;21032;-58
2022/04/29 05:50:07;;;;;;;2.70;1.90;;;;;;;13.09;64.17;150943.05;1745267;81;21423;-60
2022/04/29 05:52:37;;;;;;;2.70;1.77;;;;;;;13.08;64.70;150940.44;1745042;81;21491;-59
2022/04/29 05:55:08;;;;;;;6.60;1.90;;;;;;;13.07;65.39;150937.84;1745031;81;21498;-59
2022/04/29 05:57:36;;;;;;;3.17;1.90;;;;;;;13.08;65.75;150939.17;1745250;80;21920;-58
2022/04/29 06:00:07;;;;;;;2.67;1.70;;;;;;;13.07;65.75;150936.56;1745297;81;20982;-59
2022/04/29 06:02:47;;;;;;;6.55;2.05;;;;;;;13.06;66.14;150935.25;1745592;81;21028;-60
2022/04/29 06:05:16;;;;;;;4.85;2.08;;;;;;;13.02;66.73;150924.86;1744502;82;21602;-58
2022/04/29 06:07:45;;;;;;;5.90;2.20;;;;;;;12.98;66.75;150914.47;1745288;82;21072;-59
2022/04/29 06:10:13;;;;;;;3.35;2.00;;;;;;;12.92;67.49;150898.83;1744583;82;20970;-59
2022/04/29 06:12:43;;;;;;;4.35;1.95;;;;;;;12.87;68.56;150888.44;1745524;81;21016;-59
2022/04/29 06:15:17;;;;;;;5.92;1.90;;;;;;;12.84;69.42;150880.66;1742057;80;20958;-60
2022/04/29 06:18:05;;;;;;;3.65;1.82;;;;;;;12.83;69.13;150876.78;1745679;81;20899;-60
2022/04/29 06:20:39;;;;;;;4.33;1.95;;;;;;;12.83;69.78;150878.06;1691139;82;21042;-60
2022/04/29 06:23:25;;;;;;;2.75;2.00;;;;;;;12.82;69.40;150874.13;1736696;80;21598;-61
2022/04/29 06:25:54;;;;;;;2.87;1.98;;;;;;;12.80;70.14;150870.27;1740606;80;21093;-60
2022/04/29 06:28:22;;;;;;;4.03;2.12;;;;;;;12.80;71.10;150870.27;1732106;80;21049;-60
2022/04/29 06:30:50;;;;;;;3.47;1.82;;;;;;;12.81;71.05;150872.86;1730996;81;21078;-61
2022/04/29 06:33:39;;;;;;;3.62;1.92;;;;;;;12.79;71.92;150866.34;1725757;80;21030;-61
2022/04/29 06:36:09;;;;;;;2.92;2.00;;;;;;;12.75;72.10;150857.28;1738748;80;21225;-59
2022/04/29 06:38:37;;;;;;;5.65;2.12;;;;;;;12.75;72.94;150858.55;1745151;82;21046;-59
2022/04/29 06:41:24;;;;;;;6.20;2.20;;;;;;;12.74;72.70;150854.67;1745098;81;21265;-59
2022/04/29 06:44:06;;;;;;;5.65;2.30;;;;;;;12.69;72.85;150842.97;1745459;82;21033;-61
2022/04/29 06:46:39;;;;;;;4.03;1.90;;;;;;;12.65;73.10;150831.25;1742103;80;21639;-59
2022/04/29 06:49:25;;;;;;;3.25;2.05;;;;;;;12.61;72.97;150823.47;1745122;80;22482;-61
2022/04/29 06:52:11;;;;;;;6.25;2.90;;;;;;;12.56;72.29;150809.16;1745189;81;21023;-59
2022/04/29 06:54:43;;;;;;;3.83;2.45;;;;;;;12.54;73.50;150803.97;1743776;80;21030;-60
2022/04/29 06:57:12;;;;;;;5.33;2.67;;;;;;;12.53;73.79;150802.69;1749781;82;20848;-60
2022/04/29 06:59:39;;;;;;;5.80;2.62;;;;;;;12.52;74.71;150800.09;1743446;80;21090;-60
2022/04/29 07:02:07;;;;;;;4.90;2.50;;;;;;;12.53;75.31;150802.69;1725818;80;21183;-61
2022/04/29 07:04:35;;;;;;;4.47;2.50;;;;;;;12.54;75.44;150803.97;1735995;80;21095;-62
2022/04/29 07:07:05;;;;;;;4.28;2.58;;;;;;;12.55;75.66;150807.89;1699751;83;20980;-60
2022/04/29 07:09:34;;;;;;;4.30;2.17;;;;;;;12.55;75.65;150807.89;1727786;80;20966;-60
2022/04/29 07:12:10;;;;;;;6.95;2.70;;;;;;;12.55;75.77;150807.89;1699070;81;20978;-59
2022/04/29 07:14:42;;;;;;;5.80;2.45;;;;;;;12.52;76.75;150800.09;1744515;81;21217;-60
2022/04/29 07:17:13;;;;;;;3.47;2.25;;;;;;;12.49;76.70;150792.31;1749839;81;21416;-60
2022/04/29 07:19:45;;;;;;;4.00;2.30;;;;;;;12.48;77.25;150788.39;1750011;81;21546;-62
2022/04/29 07:22:12;;;;;;;7.30;2.67;;;;;;;12.43;77.64;150776.67;1750609;82;21381;-59
2022/04/29 07:24:41;;;;;;;7.25;3.33;;;;;;;12.40;79.09;150768.89;1749429;81;21078;-59
2022/04/29 07:27:09;;;;;;;4.55;2.67;;;;;;;12.35;79.59;150755.91;1750400;82;21245;-58
2022/04/29 07:29:38;;;;;;;4.50;2.70;;;;;;;12.31;80.59;150748.11;1749859;81;21502;-59
2022/04/29 07:32:09;;;;;;;4.40;2.42;;;;;;;12.25;81.49;150731.22;1749630;81;21459;-60
2022/04/29 07:43:46;;;;;;;5.53;2.60;;;;;;;12.09;84.56;150690.95;1749675;82;21046;-59
2022/04/29 07:46:14;;;;;;;7.95;3.12;;;;;;;12.06;85.62;150683.16;1749532;81;21085;-59
2022/04/29 07:49:00;;;;;;;4.55;2.67;;;;;;;11.99;86.32;150667.50;1750307;82;21400;-60
2022/04/29 07:51:29;;;;;;;5.50;2.72;;;;;;;11.94;87.04;150654.52;1749471;82;21077;-59
2022/04/29 07:53:57;;;;;;;6.80;2.72;;;;;;;11.93;87.48;150651.92;1749989;82;21805;-59
2022/04/29 07:56:24;;;;;;;8.93;2.95;;;;;;;11.94;88.45;150654.52;1750101;82;21068;-60
2022/04/29 07:58:55;;;;;;;6.47;2.95;;;;;;;11.94;88.71;150654.52;1749946;81;21057;-61
2022/04/29 08:01:23;;;;;;;11.10;3.08;;;;;;;11.95;89.39;150657.11;1750162;82;21024;-61
2022/04/29 08:03:50;;;;;;;5.05;2.80;;;;;;;11.98;90.47;150663.63;1748066;80;21063;-59
2022/04/29 08:06:21;;;;;;;6.90;2.87;;;;;;;12.01;90.58;150672.73;1749900;81;21001;-59
2022/04/29 08:08:48;;;;;;;5.67;2.95;;;;;;;12.03;90.75;150676.66;1750126;82;21002;-60
2022/04/29 08:11:16;;;;;;;5.85;2.92;;;;;;;12.01;90.52;150672.73;1749934;82;21431;-60
2022/04/29 08:13:47;;;;;;;6.47;2.92;;;;;;;11.99;90.69;150667.50;1747291;82;21252;-59
2022/04/29 08:16:32;;;;;;;7.78;3.05;;;;;;;11.98;91.00;150664.89;1712450;81;20977;-59
2022/04/29 08:19:02;;;;;;;3.98;2.65;;;;;;;11.99;91.14;150667.50;1749475;81;20921;-59
2022/04/29 08:21:48;;;;;;;5.20;3.33;;;;;;;12.00;91.01;150670.09;1750150;82;21073;-58
2022/04/29 08:24:15;;;;;;;8.78;3.87;;;;;;;12.00;90.34;150670.09;1749919;82;21160;-60
2022/04/29 08:26:42;;;;;;;10.20;4.62;;;;;;;12.02;90.26;150674.06;1749902;81;21534;-61
2022/04/29 08:29:11;;;;;;;6.70;3.25;;;;;;;12.03;90.61;150677.92;1750266;82;20872;-60
2022/04/29 08:31:39;;;;;;;6.25;3.70;;;;;;;12.04;89.81;150680.53;1750374;82;21222;-61
2022/04/29 08:34:09;;;;;;;7.67;3.30;;;;;;;12.07;90.36;150685.77;1750286;81;20990;-61
2022/04/29 08:36:37;;;;;;;5.95;3.08;;;;;;;12.11;90.64;150696.14;1750209;80;20974;-60
2022/04/29 08:39:05;;;;;;;7.67;3.45;;;;;;;12.14;90.78;150705.20;1739703;82;20964;-59
2022/04/29 08:41:32;;;;;;;7.47;3.52;;;;;;;12.18;90.47;150715.64;1748456;81;21047;-59
2022/04/29 08:44:00;;;;;;;7.08;3.70;;;;;;;12.23;90.56;150727.30;1750577;82;21265;-59
2022/04/29 08:46:32;;;;;;;9.33;4.03;;;;;;;12.25;90.86;150732.50;1748727;81;21056;-59
2022/04/29 08:49:02;;;;;;;8.15;3.27;;;;;;;12.28;91.85;150740.33;1750153;81;21004;-60
2022/04/29 08:51:30;;;;;;;8.73;3.90;;;;;;;12.27;91.84;150737.73;1746254;80;21086;-60
2022/04/29 08:54:01;;;;;;;7.30;3.70;;;;;;;12.23;92.01;150726.03;1745303;81;21046;-60
2022/04/29 08:59:14;;;;;;;5.33;3.65;;;;;;;12.21;93.20;150720.83;1744524;80;21102;-59
2022/04/29 09:01:43;;;;;;;9.10;5.08;;;;;;;12.19;94.05;150716.91;1745006;82;21108;-60
2022/04/29 09:04:10;;;;;;;13.35;4.22;;;;;;;12.19;94.82;150716.91;1744125;82;21041;-59
2022/04/29 09:06:50;;;;;;;7.10;4.05;;;;;;;12.20;94.98;150719.50;1745168;82;21046;-60
2022/04/29 09:09:22;;;;;;;8.30;4.20;;;;;;;12.21;95.03;150722.09;1745215;81;21482;-58
2022/04/29 09:11:49;;;;;;;7.67;4.00;;;;;;;12.19;93.92;150716.91;1745005;82;21060;-58
2022/04/29 09:14:25;;;;;;;8.90;3.45;;;;;;;12.16;94.07;150709.13;1744725;82;21052;-59
2022/04/29 09:16:54;;;;;;;9.35;4.80;;;;;;;12.12;93.92;150700.02;1745265;82;21037;-59
2022/04/29 09:19:36;;;;;;;8.85;4.70;;;;;;;12.09;93.79;150692.22;1735892;80;21028;-59
2022/04/29 09:22:09;;;;;;;9.70;4.67;;;;;;;12.06;94.32;150683.16;1738012;82;21860;-59
2022/04/29 09:25:02;;;;;;;7.60;3.95;;;;;;;12.01;95.45;150672.73;1737904;80;21048;-59
2022/04/29 09:27:35;;;;;;;7.75;3.20;;;;;;;11.98;95.84;150664.89;1727284;82;21047;-58
2022/04/29 09:30:05;;;;;;;6.03;3.60;;;;;;;11.97;96.82;150662.30;1719580;82;20950;-58
2022/04/29 09:32:48;;;;;;;7.97;3.42;;;;;;;11.96;96.57;150658.44;1741130;80;21454;-60
2022/04/29 09:35:41;;;;;;;3.98;2.70;;;;;;;11.97;96.39;150661.03;1711988;82;21396;-59
2022/04/29 09:40:55;;;;;;;4.87;2.55;;;;;;;11.93;93.93;150650.59;1745817;81;21685;-59
2022/04/29 09:43:45;;;;;;;5.75;2.58;;;;;;;11.88;92.08;150640.22;1745434;81;20989;-59
2022/04/29 09:46:23;;;;;;;4.60;3.35;;;;;;;11.85;92.42;150631.16;1736731;80;20942;-59
2022/04/29 09:49:02;;;;;;;4.20;3.00;;;;;;;11.83;92.43;150625.97;1732801;80;21550;-59
2022/04/29 09:51:43;;;;;;;6.53;3.52;;;;;;;11.82;93.73;150623.31;1715124;82;21064;-59
2022/04/29 09:54:17;;;;;;;8.83;3.30;;;;;;;11.83;94.94;150625.97;1719981;82;20973;-59
2022/04/29 09:56:46;;;;;;;6.35;3.12;;;;;;;11.80;95.83;150618.12;1750271;82;21037;-57
2022/04/29 09:59:13;;;;;;;7.40;3.00;;;;;;;11.73;96.33;150602.56;1749823;82;20876;-58
2022/04/29 10:01:42;;;;;;;11.25;3.27;;;;;;;11.66;97.49;150584.39;1749842;80;21518;-58
2022/04/29 10:04:09;;;;;;;6.58;3.42;;;;;;;11.63;98.00;150576.61;1699057;83;21495;-59
2022/04/29 10:06:38;;;;;;;6.12;3.35;;;;;;;11.61;97.52;150571.41;1719436;83;21017;-59
2022/04/29 10:09:05;;;;;;;6.85;3.40;;;;;;;11.59;98.47;150566.17;1719610;83;21416;-60
2022/04/29 10:11:33;;;;;;;5.08;3.12;;;;;;;11.56;98.95;150558.39;1718934;83;21049;-59
2022/04/29 10:14:02;;;;;;;7.90;3.60;;;;;;;11.53;98.65;150550.61;1727430;80;21081;-58
2022/04/29 10:16:33;;;;;;;8.03;3.58;;;;;;;11.49;98.52;150540.22;1748864;81;20970;-58
2022/04/29 10:22:15;;;;;;;8.33;3.67;;;;;;;11.44;99.10;150529.84;1748609;81;21536;-59
2022/04/29 10:24:43;;;;;;;7.08;3.72;;;;;;;11.39;99.84;150516.88;1749999;82;21777;-59
2022/04/29 10:27:10;;;;;;;5.87;3.90;;;;;;;11.39;100.00;150515.56;1749912;81;21416;-59
2022/04/29 10:29:39;;;;;;;8.45;4.47;;;;;;;11.36;100.00;150509.05;1727911;81;21047;-59
2022/04/29 10:32:09;;;;;;;6.95;4.05;;;;;;;11.36;99.86;150509.05;1750631;81;20953;-60
2022/04/29 10:34:36;;;;;;;10.70;4.25;;;;;;;11.35;100.00;150506.44;1750356;81;21058;-59
2022/04/29 10:37:12;;;;;;;9.00;3.92;;;;;;;11.37;100.00;150511.64;1750196;80;21041;-62
2022/04/29 10:39:41;;;;;;;8.50;4.80;;;;;;;11.38;100.00;150514.23;1749194;81;22375;-59
2022/04/29 10:42:09;;;;;;;9.33;5.10;;;;;;;11.39;100.00;150516.88;1750075;82;21405;-59
2022/04/29 10:45:00;;;;;;;9.25;5.00;;;;;;;11.38;100.00;150514.23;1750060;82;21469;-59
2022/04/29 10:47:38;;;;;;;8.80;4.30;;;;;;;11.36;100.00;150507.78;1750108;81;21548;-59
2022/04/29 10:50:37;;;;;;;6.37;3.70;;;;;;;11.31;100.00;150496.06;1749708;81;20949;-61
2022/04/29 10:53:23;;;;;;;8.55;4.12;;;;;;;11.29;100.00;150492.20;1749563;80;21792;-59
2022/04/29 10:55:52;;;;;;;8.98;4.35;;;;;;;11.28;100.00;150488.28;1749994;80;21176;-59
2022/04/29 10:58:46;;;;;;;7.33;3.98;;;;;;;11.29;100.00;150490.88;1749564;80;21043;-59
2022/04/29 11:01:24;;;;;;;;;;;;;;;11.32;100.00;150498.66;1752453;80;20944;-59
2022/04/29 11:03:51;;;;;;;8.05;4.53;;;;;;;11.35;100.00;150506.44;1749830;82;20233;-60
2022/04/29 11:06:20;;;;;;;8.40;4.30;;;;;;;11.38;100.00;150512.95;1749574;80;21870;-59
2022/04/29 11:08:47;;;;;;;6.83;4.10;;;;;;;11.40;100.00;150518.16;1748865;81;21129;-59
2022/04/29 11:11:14;;;;;;;8.38;4.40;;;;;;;11.44;100.00;150529.84;1750420;82;20963;-59
2022/04/29 11:14:03;;;;;;;7.70;4.28;;;;;;;11.46;100.00;150535.03;1697542;84;21030;-59
2022/04/29 11:16:59;;;;;;;6.90;4.28;;;;;;;11.48;100.00;150538.91;1664581;83;21712;-59
2022/04/29 11:19:47;;;;;;;11.25;4.08;;;;;;;11.50;100.00;150542.81;1689119;84;21104;-60
2022/04/29 11:25:06;;;;;;;9.55;4.62;;;;;;;11.54;100.00;150553.20;1689624;84;21085;-59
2022/04/29 11:27:44;;;;;;;6.37;3.87;;;;;;;11.56;100.00;150558.39;1689003;84;21052;-59
2022/04/29 11:30:18;;;;;;;5.97;3.55;;;;;;;11.60;100.00;150568.78;1689907;84;21068;-59
2022/04/29 11:32:47;;;;;;;7.85;4.20;;;;;;;11.62;100.00;150574.02;1693154;83;21240;-59
2022/04/29 11:35:14;;;;;;;6.15;3.95;;;;;;;11.65;100.00;150581.80;1697824;83;21349;-59
2022/04/29 11:37:41;;;;;;;9.73;4.30;;;;;;;11.69;100.00;150590.86;1698898;84;21120;-59
2022/04/29 11:40:10;;;;;;;6.95;4.33;;;;;;;11.74;100.00;150605.16;1699156;84;21010;-58
2022/04/29 11:42:37;;;;;;;6.40;4.10;;;;;;;11.81;100.00;150620.72;1698273;83;20969;-58
2022/04/29 11:45:09;;;;;;;7.95;4.15;;;;;;;11.84;99.92;150628.56;1676768;84;21244;-59
2022/04/29 11:47:36;;;;;;;7.35;3.55;;;;;;;11.87;99.25;150636.34;1698662;83;21522;-59
2022/04/29 11:50:04;;;;;;;7.83;4.20;;;;;;;11.91;98.39;150646.73;1690805;83;21450;-59
2022/04/29 11:52:36;;;;;;;6.55;3.72;;;;;;;11.96;97.71;150659.70;1699241;84;21339;-59
2022/04/29 11:55:16;;;;;;;6.25;3.80;;;;;;;12.01;96.94;150671.47;1690899;83;20930;-58
2022/04/29 11:57:49;;;;;;;6.37;3.40;;;;;;;12.03;94.53;150676.66;1688916;83;21105;-59
2022/04/29 12:00:27;;;;;;;4.78;3.10;;;;;;;12.08;95.18;150688.36;1688635;83;21354;-60
2022/04/29 12:02:55;;;;;;;8.10;3.00;;;;;;;12.13;93.40;150702.61;1680110;83;21029;-59
2022/04/29 12:05:23;;;;;;;5.67;3.17;;;;;;;12.15;91.51;150706.53;1689369;83;21050;-59
2022/04/29 12:07:52;;;;;;;6.33;3.35;;;;;;;12.14;90.15;150703.94;1690999;83;21050;-59
2022/04/29 12:10:31;;;;;;;8.35;3.20;;;;;;;12.15;90.21;150706.53;1690694;83;21290;-58
2022/04/29 12:13:01;;;;;;;4.97;2.80;;;;;;;12.16;89.99;150709.13;1699063;84;21019;-58